Time,TemperatureF,DewpointF,PressureIn,WindDirection,WindDirectionDegrees,WindSpeedMPH,WindSpeedGustMPH,Humidity,HourlyPrecipIn,Conditions,Clouds,dailyrainin,SolarRadiationWatts/m^2,SoftwareType,DateUTC
2014-11-21 00:03:00,12.9,5.9,30.27,NNW,329,0.0,0.0,73,-99.99,,,-99.99,0.0,1-wire,2014-11-21 06:03:00,
2014-11-21 00:08:00,13.2,5.8,30.27,NNW,329,0.0,0.0,72,-99.99,,,-99.99,1.5,1-wire,2014-11-21 06:08:00,
2014-11-21 00:13:00,13.5,6.0,30.27,NNW,332,0.0,0.0,71,-99.99,,,-99.99,0.0,1-wire,2014-11-21 06:13:00,
2014-11-21 00:18:00,13.3,5.9,30.27,NNW,332,0.0,0.0,72,-99.99,,,-99.99,0.0,1-wire,2014-11-21 06:18:00,
2014-11-21 00:23:00,13.0,5.8,30.27,NNW,332,0.0,0.0,72,-99.99,,,-99.99,0.0,1-wire,2014-11-21 06:23:00,
2014-11-21 00:28:00,12.7,5.4,30.27,NNW,331,0.0,0.0,72,-99.99,,,-99.99,0.0,1-wire,2014-11-21 06:28:00,
2014-11-21 00:33:00,12.1,5.4,30.27,NNW,331,0.0,0.0,74,-99.99,,,-99.99,0.0,1-wire,2014-11-21 06:33:00,
2014-11-21 00:38:00,12.2,5.4,30.27,NNW,331,0.0,0.0,74,-99.99,,,-99.99,0.0,1-wire,2014-11-21 06:38:00,
2014-11-21 00:43:00,12.2,5.6,30.27,NNW,328,0.0,0.0,74,-99.99,,,-99.99,0.0,1-wire,2014-11-21 06:43:00,
2014-11-21 00:48:00,11.8,5.2,30.28,NNW,328,0.0,0.0,74,-99.99,,,-99.99,0.0,1-wire,2014-11-21 06:48:00,
2014-11-21 00:53:00,11.8,5.4,30.28,NNW,328,0.0,0.0,75,-99.99,,,-99.99,0.0,1-wire,2014-11-21 06:53:00,
2014-11-21 00:59:00,11.7,5.4,30.28,NNW,327,0.0,0.0,75,-99.99,,,-99.99,0.0,1-wire,2014-11-21 06:59:00,
2014-11-21 01:04:00,11.4,5.4,30.28,NNW,327,0.0,0.0,76,-99.99,,,-99.99,1.5,1-wire,2014-11-21 07:04:00,
2014-11-21 01:09:00,11.1,5.3,30.29,NNW,327,0.0,0.0,77,-99.99,,,-99.99,1.8,1-wire,2014-11-21 07:09:00,
2014-11-21 01:14:00,10.6,5.3,30.29,NNW,343,0.0,0.0,79,-99.99,,,-99.99,0.0,1-wire,2014-11-21 07:14:00,
2014-11-21 01:19:00,10.9,5.4,30.29,NNW,343,0.0,0.0,78,-99.99,,,-99.99,0.0,1-wire,2014-11-21 07:19:00,
2014-11-21 01:24:00,10.9,5.7,30.29,NNW,343,0.0,0.0,79,-99.99,,,-99.99,0.0,1-wire,2014-11-21 07:24:00,
2014-11-21 01:30:00,10.7,5.3,30.29,NNW,343,0.0,0.0,78,-99.99,,,-99.99,1.5,1-wire,2014-11-21 07:30:00,
2014-11-21 01:35:00,10.5,5.6,30.29,NNW,343,0.0,0.0,80,-99.99,,,-99.99,0.0,1-wire,2014-11-21 07:35:00,
2014-11-21 01:40:00,10.4,5.4,30.29,NNW,343,0.0,0.0,80,-99.99,,,-99.99,0.0,1-wire,2014-11-21 07:40:00,
2014-11-21 01:45:00,10.5,5.4,30.29,NNW,338,0.0,0.0,79,-99.99,,,-99.99,0.0,1-wire,2014-11-21 07:45:00,
2014-11-21 01:50:00,10.6,5.7,30.29,NNW,338,0.0,0.0,80,-99.99,,,-99.99,1.5,1-wire,2014-11-21 07:50:00,
2014-11-21 01:55:00,10.6,5.8,30.29,NNW,338,0.0,0.0,80,-99.99,,,-99.99,0.0,1-wire,2014-11-21 07:55:00,
2014-11-21 02:00:00,10.6,5.7,30.30,NNW,334,0.0,0.0,80,-99.99,,,-99.99,1.5,1-wire,2014-11-21 08:00:00,
2014-11-21 02:05:00,10.9,5.8,30.29,NNW,334,0.0,0.0,79,-99.99,,,-99.99,0.0,1-wire,2014-11-21 08:05:00,
2014-11-21 02:10:00,10.8,5.8,30.29,NNW,334,0.0,0.0,80,-99.99,,,-99.99,0.0,1-wire,2014-11-21 08:10:00,
2014-11-21 02:16:00,10.1,5.4,30.29,NNW,340,0.0,0.0,81,-99.99,,,-99.99,0.0,1-wire,2014-11-21 08:16:00,
2014-11-21 02:21:00,10.3,5.5,30.30,NNW,340,0.0,0.0,81,-99.99,,,-99.99,0.0,1-wire,2014-11-21 08:21:00,
2014-11-21 02:26:00,9.7,5.2,30.30,NNW,340,0.0,0.0,81,-99.99,,,-99.99,0.0,1-wire,2014-11-21 08:26:00,
2014-11-21 02:31:00,9.8,5.2,30.30,NNW,345,0.0,0.0,81,-99.99,,,-99.99,0.0,1-wire,2014-11-21 08:31:00,
2014-11-21 02:36:00,10.0,5.3,30.30,NNW,345,0.0,0.0,81,-99.99,,,-99.99,0.0,1-wire,2014-11-21 08:36:00,
2014-11-21 02:41:00,9.6,5.4,30.30,NNW,345,0.0,0.0,82,-99.99,,,-99.99,0.0,1-wire,2014-11-21 08:41:00,
2014-11-21 02:46:00,9.2,4.9,30.31,NNW,344,0.0,0.0,82,-99.99,,,-99.99,0.0,1-wire,2014-11-21 08:46:00,
2014-11-21 02:51:00,9.3,5.1,30.31,NNW,344,0.0,0.0,83,-99.99,,,-99.99,0.0,1-wire,2014-11-21 08:51:00,
2014-11-21 02:56:00,9.2,5.2,30.31,NNW,344,0.0,0.0,83,-99.99,,,-99.99,0.0,1-wire,2014-11-21 08:56:00,
2014-11-21 03:01:00,8.8,4.9,30.31,NNW,336,0.0,0.0,83,-99.99,,,-99.99,0.0,1-wire,2014-11-21 09:01:00,
2014-11-21 03:06:00,8.7,4.7,30.31,NNW,336,0.0,0.0,83,-99.99,,,-99.99,0.0,1-wire,2014-11-21 09:06:00,
2014-11-21 03:11:00,8.9,5.0,30.31,NNW,336,0.0,0.0,84,-99.99,,,-99.99,0.0,1-wire,2014-11-21 09:11:00,
2014-11-21 03:16:00,8.5,4.8,30.31,NNW,334,0.0,0.0,85,-99.99,,,-99.99,0.0,1-wire,2014-11-21 09:16:00,
2014-11-21 03:21:00,8.5,4.9,30.31,NNW,334,0.0,0.0,85,-99.99,,,-99.99,0.0,1-wire,2014-11-21 09:21:00,
2014-11-21 03:26:00,8.7,5.2,30.31,NNW,334,0.0,0.0,85,-99.99,,,-99.99,0.0,1-wire,2014-11-21 09:26:00,
2014-11-21 03:31:00,9.1,5.5,30.31,NNW,335,0.0,0.0,85,-99.99,,,-99.99,0.0,1-wire,2014-11-21 09:31:00,
2014-11-21 03:36:00,9.2,5.6,30.31,NNW,335,0.0,0.0,85,-99.99,,,-99.99,0.0,1-wire,2014-11-21 09:36:00,
2014-11-21 03:42:00,9.2,5.5,30.31,NNW,337,0.0,0.0,85,-99.99,,,-99.99,0.0,1-wire,2014-11-21 09:42:00,
2014-11-21 03:47:00,9.3,5.5,30.31,NNW,337,0.0,0.0,84,-99.99,,,-99.99,0.0,1-wire,2014-11-21 09:47:00,
2014-11-21 03:52:00,8.8,5.1,30.31,NNW,337,0.0,0.0,84,-99.99,,,-99.99,0.0,1-wire,2014-11-21 09:52:00,
2014-11-21 03:57:00,9.0,5.2,30.31,NNW,336,0.0,0.0,84,-99.99,,,-99.99,0.0,1-wire,2014-11-21 09:57:00,
2014-11-21 04:02:00,8.9,5.1,30.31,NNW,336,0.0,0.0,84,-99.99,,,-99.99,0.0,1-wire,2014-11-21 10:02:00,
2014-11-21 04:07:00,9.0,5.3,30.31,NNW,336,0.0,0.0,85,-99.99,,,-99.99,0.0,1-wire,2014-11-21 10:07:00,
2014-11-21 04:12:00,8.9,5.1,30.31,NNW,332,0.0,0.0,84,-99.99,,,-99.99,0.0,1-wire,2014-11-21 10:12:00,
2014-11-21 04:17:00,9.0,5.2,30.31,NNW,332,0.0,0.0,84,-99.99,,,-99.99,0.0,1-wire,2014-11-21 10:17:00,
2014-11-21 04:22:00,8.8,5.1,30.31,NNW,332,0.0,0.0,85,-99.99,,,-99.99,0.0,1-wire,2014-11-21 10:22:00,
2014-11-21 04:27:00,8.7,5.0,30.31,NNW,330,0.0,0.0,84,-99.99,,,-99.99,0.0,1-wire,2014-11-21 10:27:00,
2014-11-21 04:32:00,8.5,4.9,30.31,NNW,330,0.0,2.0,85,-99.99,,,-99.99,0.0,1-wire,2014-11-21 10:32:00,
2014-11-21 04:37:00,9.0,5.4,30.31,NNW,330,0.0,2.0,85,-99.99,,,-99.99,0.0,1-wire,2014-11-21 10:37:00,
2014-11-21 04:42:00,8.7,5.1,30.31,NNW,331,0.0,2.0,85,-99.99,,,-99.99,1.5,1-wire,2014-11-21 10:42:00,
2014-11-21 04:47:00,8.8,5.2,30.32,NNW,331,0.0,2.0,85,-99.99,,,-99.99,0.0,1-wire,2014-11-21 10:47:00,
2014-11-21 04:53:00,9.2,5.5,30.31,NNW,331,0.0,0.0,85,-99.99,,,-99.99,0.0,1-wire,2014-11-21 10:53:00,
2014-11-21 04:58:00,9.4,5.7,30.32,NNW,332,0.0,0.0,85,-99.99,,,-99.99,0.0,1-wire,2014-11-21 10:58:00,
2014-11-21 05:03:00,9.4,5.7,30.32,NNW,332,0.0,0.0,85,-99.99,,,-99.99,0.0,1-wire,2014-11-21 11:03:00,
2014-11-21 05:08:00,9.1,5.3,30.32,NNW,332,0.0,0.0,84,-99.99,,,-99.99,0.0,1-wire,2014-11-21 11:08:00,
2014-11-21 05:13:00,9.0,5.2,30.33,NNW,333,0.0,0.0,84,-99.99,,,-99.99,0.0,1-wire,2014-11-21 11:13:00,
2014-11-21 05:18:00,8.7,4.9,30.33,NNW,333,0.0,0.0,84,-99.99,,,-99.99,0.0,1-wire,2014-11-21 11:18:00,
2014-11-21 05:23:00,8.6,5.0,30.33,NNW,333,0.0,2.0,85,-99.99,,,-99.99,0.0,1-wire,2014-11-21 11:23:00,
2014-11-21 05:28:00,8.5,4.9,30.33,NNW,337,0.0,0.0,85,-99.99,,,-99.99,0.0,1-wire,2014-11-21 11:28:00,
2014-11-21 05:33:00,8.6,5.1,30.33,NNW,337,0.0,0.0,85,-99.99,,,-99.99,0.0,1-wire,2014-11-21 11:33:00,
2014-11-21 05:38:00,8.8,5.3,30.33,NNW,337,0.0,0.0,85,-99.99,,,-99.99,0.0,1-wire,2014-11-21 11:38:00,
2014-11-21 05:43:00,8.7,5.2,30.33,North,352,0.0,0.0,85,-99.99,,,-99.99,0.0,1-wire,2014-11-21 11:43:00,
2014-11-21 05:48:00,8.5,5.1,30.33,North,352,0.0,0.0,86,-99.99,,,-99.99,0.0,1-wire,2014-11-21 11:48:00,
2014-11-21 05:53:00,8.0,4.8,30.32,North,352,0.0,0.0,86,-99.99,,,-99.99,0.0,1-wire,2014-11-21 11:53:00,
2014-11-21 05:58:00,8.3,5.0,30.33,North,353,0.0,0.0,86,-99.99,,,-99.99,0.0,1-wire,2014-11-21 11:58:00,
2014-11-21 06:04:00,8.5,5.4,30.33,North,353,0.0,0.0,87,-99.99,,,-99.99,0.0,1-wire,2014-11-21 12:04:00,
2014-11-21 06:09:00,8.2,5.3,30.33,North,353,0.0,0.0,88,-99.99,,,-99.99,0.0,1-wire,2014-11-21 12:09:00,
2014-11-21 06:14:00,8.1,5.1,30.33,North,360,0.0,0.0,87,-99.99,,,-99.99,0.0,1-wire,2014-11-21 12:14:00,
2014-11-21 06:19:00,8.1,5.2,30.33,North,360,0.0,0.0,88,-99.99,,,-99.99,0.0,1-wire,2014-11-21 12:19:00,
2014-11-21 06:24:00,7.9,5.1,30.33,North,360,0.0,0.0,88,-99.99,,,-99.99,0.0,1-wire,2014-11-21 12:24:00,
2014-11-21 06:29:00,8.2,5.4,30.33,North,357,0.0,0.0,88,-99.99,,,-99.99,0.0,1-wire,2014-11-21 12:29:00,
2014-11-21 06:34:00,8.4,5.7,30.33,North,357,0.0,0.0,88,-99.99,,,-99.99,0.0,1-wire,2014-11-21 12:34:00,
2014-11-21 06:39:00,8.4,5.6,30.34,North,357,0.0,0.0,88,-99.99,,,-99.99,0.0,1-wire,2014-11-21 12:39:00,
2014-11-21 06:44:00,8.4,5.5,30.33,North,357,0.0,0.0,88,-99.99,,,-99.99,1.5,1-wire,2014-11-21 12:44:00,
2014-11-21 06:49:00,8.4,5.5,30.34,North,357,0.0,0.0,87,-99.99,,,-99.99,3.0,1-wire,2014-11-21 12:49:00,
2014-11-21 06:55:00,8.3,5.5,30.34,North,357,0.0,0.0,88,-99.99,,,-99.99,3.0,1-wire,2014-11-21 12:55:00,
2014-11-21 07:00:00,8.2,5.8,30.34,North,353,1.0,2.0,90,-99.99,,,-99.99,6.1,1-wire,2014-11-21 13:00:00,
2014-11-21 07:05:00,8.6,6.0,30.34,North,353,1.0,2.0,89,-99.99,,,-99.99,9.1,1-wire,2014-11-21 13:05:00,
2014-11-21 07:10:00,8.3,5.7,30.34,North,353,0.0,0.0,89,-99.99,,,-99.99,9.1,1-wire,2014-11-21 13:10:00,
2014-11-21 07:15:00,8.5,5.7,30.34,NNW,346,0.0,0.0,88,-99.99,,,-99.99,12.2,1-wire,2014-11-21 13:15:00,
2014-11-21 07:20:00,8.8,6.3,30.34,NNW,346,0.0,2.0,89,-99.99,,,-99.99,15.2,1-wire,2014-11-21 13:20:00,
2014-11-21 07:25:00,9.0,6.3,30.35,NNW,346,0.0,0.0,88,-99.99,,,-99.99,18.3,1-wire,2014-11-21 13:25:00,
2014-11-21 07:30:00,9.3,6.4,30.34,NNW,348,0.0,2.0,88,-99.99,,,-99.99,18.3,1-wire,2014-11-21 13:30:00,
2014-11-21 07:35:00,9.4,6.4,30.34,NNW,348,0.0,0.0,87,-99.99,,,-99.99,18.3,1-wire,2014-11-21 13:35:00,
2014-11-21 07:40:00,10.0,6.9,30.35,NNW,348,0.0,2.0,87,-99.99,,,-99.99,38.1,1-wire,2014-11-21 13:40:00,
2014-11-21 07:45:00,10.3,6.9,30.34,North,356,0.0,2.0,86,-99.99,,,-99.99,75.1,1-wire,2014-11-21 13:45:00,
2014-11-21 07:50:00,10.9,7.2,30.34,North,356,0.0,0.0,85,-99.99,,,-99.99,109.9,1-wire,2014-11-21 13:50:00,
2014-11-21 07:55:00,11.4,7.1,30.35,North,356,1.0,3.0,82,-99.99,,,-99.99,155.7,1-wire,2014-11-21 13:55:00,
2014-11-21 08:00:00,12.2,7.1,30.35,North,4,1.0,2.0,79,-99.99,,,-99.99,166.7,1-wire,2014-11-21 14:00:00,
2014-11-21 08:05:00,12.9,7.1,30.34,North,4,2.0,4.0,77,-99.99,,,-99.99,102.6,1-wire,2014-11-21 14:05:00,
2014-11-21 08:10:00,13.3,7.1,30.34,North,4,3.0,5.0,76,-99.99,,,-99.99,95.3,1-wire,2014-11-21 14:10:00,
2014-11-21 08:15:00,14.0,7.5,30.35,SSE,156,0.0,2.0,75,-99.99,,,-99.99,146.6,1-wire,2014-11-21 14:15:00,
2014-11-21 08:20:00,14.3,7.1,30.35,SSE,156,2.0,7.0,72,-99.99,,,-99.99,89.8,1-wire,2014-11-21 14:20:00,
2014-11-21 08:25:00,14.7,7.1,30.35,SSE,156,2.0,5.0,71,-99.99,,,-99.99,111.7,1-wire,2014-11-21 14:25:00,
2014-11-21 08:30:00,15.1,7.4,30.35,South,191,3.0,6.0,71,-99.99,,,-99.99,186.9,1-wire,2014-11-21 14:30:00,
2014-11-21 08:35:00,15.6,7.4,30.34,South,191,2.0,5.0,69,-99.99,,,-99.99,203.9,1-wire,2014-11-21 14:35:00,
2014-11-21 08:40:00,15.9,7.2,30.35,South,191,2.0,5.0,68,-99.99,,,-99.99,203.4,1-wire,2014-11-21 14:40:00,
2014-11-21 08:45:00,16.1,6.9,30.34,SSE,166,2.0,4.0,66,-99.99,,,-99.99,234.6,1-wire,2014-11-21 14:45:00,
2014-11-21 08:50:00,16.8,7.4,30.35,SSE,166,1.0,4.0,66,-99.99,,,-99.99,302.4,1-wire,2014-11-21 14:50:00,
2014-11-21 08:56:00,17.1,7.2,30.35,SSE,166,3.0,7.0,64,-99.99,,,-99.99,309.7,1-wire,2014-11-21 14:56:00,
2014-11-21 09:01:00,18.0,7.9,30.35,South,174,4.0,7.0,64,-99.99,,,-99.99,311.5,1-wire,2014-11-21 15:01:00,
2014-11-21 09:06:00,17.6,7.1,30.35,South,174,3.0,9.0,63,-99.99,,,-99.99,320.7,1-wire,2014-11-21 15:06:00,
2014-11-21 09:11:00,17.5,6.6,30.35,South,174,7.0,11.0,62,-99.99,,,-99.99,326.8,1-wire,2014-11-21 15:11:00,
2014-11-21 09:17:00,17.9,6.7,30.34,South,185,3.0,9.0,61,-99.99,,,-99.99,329.9,1-wire,2014-11-21 15:17:00,
2014-11-21 09:22:00,18.6,7.5,30.34,South,185,5.0,11.0,61,-99.99,,,-99.99,339.0,1-wire,2014-11-21 15:22:00,
2014-11-21 09:27:00,19.1,7.6,30.35,South,185,4.0,6.0,60,-99.99,,,-99.99,346.7,1-wire,2014-11-21 15:27:00,
2014-11-21 09:32:00,19.5,7.8,30.35,South,179,4.0,6.0,60,-99.99,,,-99.99,348.2,1-wire,2014-11-21 15:32:00,
2014-11-21 09:37:00,20.2,7.8,30.35,South,179,3.0,5.0,58,-99.99,,,-99.99,349.7,1-wire,2014-11-21 15:37:00,
2014-11-21 09:42:00,21.2,8.3,30.34,South,181,2.0,7.0,57,-99.99,,,-99.99,355.9,1-wire,2014-11-21 15:42:00,
2014-11-21 09:47:00,20.8,7.5,30.35,South,181,5.0,8.0,56,-99.99,,,-99.99,360.4,1-wire,2014-11-21 15:47:00,
2014-11-21 09:52:00,21.8,8.3,30.35,South,181,2.0,5.0,55,-99.99,,,-99.99,366.5,1-wire,2014-11-21 15:52:00,
2014-11-21 09:57:00,21.9,7.7,30.35,South,187,6.0,9.0,54,-99.99,,,-99.99,366.5,1-wire,2014-11-21 15:57:00,
2014-11-21 10:02:00,21.4,7.2,30.34,South,187,3.0,7.0,54,-99.99,,,-99.99,375.7,1-wire,2014-11-21 16:02:00,
2014-11-21 10:07:00,22.2,7.6,30.34,South,187,3.0,8.0,53,-99.99,,,-99.99,380.3,1-wire,2014-11-21 16:07:00,
2014-11-21 10:12:00,22.1,6.7,30.33,South,185,5.0,10.0,51,-99.99,,,-99.99,383.4,1-wire,2014-11-21 16:12:00,
2014-11-21 10:17:00,23.3,7.3,30.33,SSW,195,3.0,5.0,50,-99.99,,,-99.99,386.4,1-wire,2014-11-21 16:17:00,
2014-11-21 10:23:00,24.0,8.0,30.33,SSW,195,2.0,5.0,50,-99.99,,,-99.99,395.5,1-wire,2014-11-21 16:23:00,
2014-11-21 10:28:00,23.8,7.9,30.33,South,188,2.0,6.0,50,-99.99,,,-99.99,397.1,1-wire,2014-11-21 16:28:00,
2014-11-21 10:33:00,23.6,8.2,30.33,South,188,4.0,7.0,51,-99.99,,,-99.99,403.2,1-wire,2014-11-21 16:33:00,
2014-11-21 10:38:00,23.4,6.8,30.33,South,188,5.0,10.0,48,-99.99,,,-99.99,403.2,1-wire,2014-11-21 16:38:00,
2014-11-21 10:43:00,23.2,7.1,30.33,South,186,5.0,9.0,49,-99.99,,,-99.99,401.7,1-wire,2014-11-21 16:43:00,
2014-11-21 10:48:00,22.9,7.4,30.33,South,186,5.0,8.0,51,-99.99,,,-99.99,412.4,1-wire,2014-11-21 16:48:00,
2014-11-21 10:53:00,22.6,7.9,30.33,South,186,5.0,10.0,53,-99.99,,,-99.99,418.5,1-wire,2014-11-21 16:53:00,
2014-11-21 10:58:00,23.3,9.0,30.33,SSW,192,2.0,5.0,54,-99.99,,,-99.99,421.5,1-wire,2014-11-21 16:58:00,
2014-11-21 11:03:00,24.1,9.0,30.32,SSW,192,6.0,11.0,52,-99.99,,,-99.99,421.5,1-wire,2014-11-21 17:03:00,
2014-11-21 11:08:00,24.1,8.7,30.31,SSW,192,4.0,7.0,51,-99.99,,,-99.99,430.7,1-wire,2014-11-21 17:08:00,
2014-11-21 11:14:00,24.4,9.7,30.31,South,190,3.0,5.0,53,-99.99,,,-99.99,438.0,1-wire,2014-11-21 17:14:00,
2014-11-21 11:19:00,24.5,8.9,30.31,South,190,4.0,7.0,51,-99.99,,,-99.99,439.8,1-wire,2014-11-21 17:19:00,
2014-11-21 11:24:00,24.7,9.1,30.31,South,190,6.0,8.0,51,-99.99,,,-99.99,439.8,1-wire,2014-11-21 17:24:00,
2014-11-21 11:29:00,24.9,9.6,30.30,South,170,4.0,9.0,51,-99.99,,,-99.99,439.8,1-wire,2014-11-21 17:29:00,
2014-11-21 11:34:00,25.2,8.8,30.31,South,170,6.0,13.0,49,-99.99,,,-99.99,447.2,1-wire,2014-11-21 17:34:00,
2014-11-21 11:39:00,24.9,8.8,30.30,South,170,5.0,8.0,50,-99.99,,,-99.99,449.0,1-wire,2014-11-21 17:39:00,
2014-11-21 11:44:00,24.9,8.7,30.30,South,186,2.0,5.0,49,-99.99,,,-99.99,453.6,1-wire,2014-11-21 17:44:00,
2014-11-21 11:49:00,25.4,9.5,30.31,South,186,2.0,6.0,50,-99.99,,,-99.99,456.7,1-wire,2014-11-21 17:49:00,